Terminal Aerodrome Forecast
Issued by NWS Wilmington, OH

Current Version | Previous Version | Text Only | Print | Product List | Glossary On
Versions: 1 2 3 4 5 6 7 8 9 10 11 12 13 14 15
000
FTUS41 KILN 241126
TAFILN
TAF
KILN 241126Z 2412/2512 17004KT P6SM SCT090 BKN200
     FM241500 19010KT P6SM SCT040 BKN200
     FM241800 20010G20KT P6SM VCTS BKN040CB
     FM250000 20006KT P6SM SCT050 BKN250=

USA.gov is the U.S. government's official web portal to all federal, state and local government web resources and services.